sensor_id;sensor_type;location;lat;lon;timestamp;P1;durP1;ratioP1;P2;durP2;ratioP2
21862;SDS011;11096;51.338;12.524;2022-08-19T00:01:51;38.75;;;29.13;;
21862;SDS011;11096;51.338;12.524;2022-08-19T00:04:19;39.10;;;28.58;;
21862;SDS011;11096;51.338;12.524;2022-08-19T00:06:50;42.67;;;29.35;;
21862;SDS011;11096;51.338;12.524;2022-08-19T00:09:17;38.42;;;28.80;;
21862;SDS011;11096;51.338;12.524;2022-08-19T00:11:44;38.03;;;27.67;;
21862;SDS011;11096;51.338;12.524;2022-08-19T00:14:12;41.15;;;28.77;;
21862;SDS011;11096;51.338;12.524;2022-08-19T00:16:40;37.55;;;27.95;;
21862;SDS011;11096;51.338;12.524;2022-08-19T00:19:08;43.47;;;29.15;;
21862;SDS011;11096;51.338;12.524;2022-08-19T00:21:34;47.72;;;31.20;;
21862;SDS011;11096;51.338;12.524;2022-08-19T00:24:05;47.80;;;31.95;;
21862;SDS011;11096;51.338;12.524;2022-08-19T00:26:31;44.92;;;31.17;;
21862;SDS011;11096;51.338;12.524;2022-08-19T00:28:57;46.78;;;32.80;;
21862;SDS011;11096;51.338;12.524;2022-08-19T00:31:22;48.67;;;30.73;;
21862;SDS011;11096;51.338;12.524;2022-08-19T00:33:48;52.08;;;34.13;;
21862;SDS011;11096;51.338;12.524;2022-08-19T00:36:16;46.55;;;33.40;;
21862;SDS011;11096;51.338;12.524;2022-08-19T00:38:42;55.47;;;34.40;;
21862;SDS011;11096;51.338;12.524;2022-08-19T00:41:09;53.03;;;35.63;;
21862;SDS011;11096;51.338;12.524;2022-08-19T00:43:37;54.50;;;35.75;;
21862;SDS011;11096;51.338;12.524;2022-08-19T00:46:03;57.08;;;34.38;;
21862;SDS011;11096;51.338;12.524;2022-08-19T00:48:30;57.10;;;35.97;;
21862;SDS011;11096;51.338;12.524;2022-08-19T00:50:57;57.45;;;36.33;;
21862;SDS011;11096;51.338;12.524;2022-08-19T00:53:24;57.85;;;36.95;;
21862;SDS011;11096;51.338;12.524;2022-08-19T00:55:53;60.10;;;37.88;;
21862;SDS011;11096;51.338;12.524;2022-08-19T00:58:22;63.88;;;37.97;;
21862;SDS011;11096;51.338;12.524;2022-08-19T01:00:50;53.25;;;35.67;;
21862;SDS011;11096;51.338;12.524;2022-08-19T01:03:17;51.53;;;36.47;;
21862;SDS011;11096;51.338;12.524;2022-08-19T01:05:44;54.80;;;35.88;;
21862;SDS011;11096;51.338;12.524;2022-08-19T01:08:11;49.50;;;35.10;;
21862;SDS011;11096;51.338;12.524;2022-08-19T01:10:38;50.75;;;35.88;;
21862;SDS011;11096;51.338;12.524;2022-08-19T01:13:06;52.83;;;35.78;;
21862;SDS011;11096;51.338;12.524;2022-08-19T01:15:34;69.93;;;39.45;;
21862;SDS011;11096;51.338;12.524;2022-08-19T01:18:15;57.80;;;37.42;;
21862;SDS011;11096;51.338;12.524;2022-08-19T01:20:42;68.00;;;39.95;;
21862;SDS011;11096;51.338;12.524;2022-08-19T01:23:08;56.90;;;37.00;;
21862;SDS011;11096;51.338;12.524;2022-08-19T01:25:35;60.50;;;38.22;;
21862;SDS011;11096;51.338;12.524;2022-08-19T01:28:06;60.40;;;38.15;;
21862;SDS011;11096;51.338;12.524;2022-08-19T01:30:33;52.03;;;36.17;;
21862;SDS011;11096;51.338;12.524;2022-08-19T01:32:59;63.03;;;37.95;;
21862;SDS011;11096;51.338;12.524;2022-08-19T01:35:26;62.97;;;39.35;;
21862;SDS011;11096;51.338;12.524;2022-08-19T01:38:00;65.75;;;38.67;;
21862;SDS011;11096;51.338;12.524;2022-08-19T01:40:32;54.33;;;37.70;;
21862;SDS011;11096;51.338;12.524;2022-08-19T01:42:58;53.30;;;36.25;;
21862;SDS011;11096;51.338;12.524;2022-08-19T01:45:25;64.82;;;40.38;;
21862;SDS011;11096;51.338;12.524;2022-08-19T01:47:53;65.13;;;41.00;;
21862;SDS011;11096;51.338;12.524;2022-08-19T01:50:19;59.08;;;39.92;;
21862;SDS011;11096;51.338;12.524;2022-08-19T01:52:45;56.15;;;38.97;;
21862;SDS011;11096;51.338;12.524;2022-08-19T01:55:13;57.80;;;38.25;;
21862;SDS011;11096;51.338;12.524;2022-08-19T01:57:41;59.13;;;38.53;;
21862;SDS011;11096;51.338;12.524;2022-08-19T02:00:11;61.78;;;40.15;;
21862;SDS011;11096;51.338;12.524;2022-08-19T02:02:40;54.05;;;37.35;;
21862;SDS011;11096;51.338;12.524;2022-08-19T02:05:06;58.05;;;37.30;;
21862;SDS011;11096;51.338;12.524;2022-08-19T02:07:32;56.75;;;38.45;;
21862;SDS011;11096;51.338;12.524;2022-08-19T02:09:58;56.75;;;39.10;;
21862;SDS011;11096;51.338;12.524;2022-08-19T02:12:23;63.05;;;40.40;;
21862;SDS011;11096;51.338;12.524;2022-08-19T02:14:49;63.85;;;40.00;;
21862;SDS011;11096;51.338;12.524;2022-08-19T02:17:14;54.55;;;36.38;;
21862;SDS011;11096;51.338;12.524;2022-08-19T02:19:39;52.72;;;36.15;;
21862;SDS011;11096;51.338;12.524;2022-08-19T02:22:05;52.75;;;37.45;;
21862;SDS011;11096;51.338;12.524;2022-08-19T02:24:31;57.08;;;36.42;;
21862;SDS011;11096;51.338;12.524;2022-08-19T02:26:57;54.17;;;34.60;;
21862;SDS011;11096;51.338;12.524;2022-08-19T02:29:23;49.35;;;34.78;;
21862;SDS011;11096;51.338;12.524;2022-08-19T02:31:49;53.63;;;34.58;;
21862;SDS011;11096;51.338;12.524;2022-08-19T02:34:15;48.33;;;32.33;;
21862;SDS011;11096;51.338;12.524;2022-08-19T02:36:41;41.17;;;31.13;;
21862;SDS011;11096;51.338;12.524;2022-08-19T02:39:06;44.65;;;31.73;;
21862;SDS011;11096;51.338;12.524;2022-08-19T02:41:32;47.67;;;31.95;;
21862;SDS011;11096;51.338;12.524;2022-08-19T02:43:59;43.97;;;31.10;;
21862;SDS011;11096;51.338;12.524;2022-08-19T02:46:29;52.20;;;31.63;;
21862;SDS011;11096;51.338;12.524;2022-08-19T02:48:57;41.10;;;29.60;;
21862;SDS011;11096;51.338;12.524;2022-08-19T02:51:32;43.97;;;30.63;;
21862;SDS011;11096;51.338;12.524;2022-08-19T02:53:59;45.20;;;31.00;;
21862;SDS011;11096;51.338;12.524;2022-08-19T02:56:25;49.65;;;33.67;;
21862;SDS011;11096;51.338;12.524;2022-08-19T02:58:52;52.58;;;33.20;;
21862;SDS011;11096;51.338;12.524;2022-08-19T03:01:20;48.30;;;33.60;;
21862;SDS011;11096;51.338;12.524;2022-08-19T03:03:58;44.47;;;31.75;;
21862;SDS011;11096;51.338;12.524;2022-08-19T03:06:25;45.35;;;31.45;;
21862;SDS011;11096;51.338;12.524;2022-08-19T03:08:51;43.80;;;29.48;;
21862;SDS011;11096;51.338;12.524;2022-08-19T03:13:47;43.40;;;31.05;;
21862;SDS011;11096;51.338;12.524;2022-08-19T03:16:16;39.88;;;29.73;;
21862;SDS011;11096;51.338;12.524;2022-08-19T03:18:45;44.33;;;30.88;;
21862;SDS011;11096;51.338;12.524;2022-08-19T03:21:14;39.40;;;28.52;;
21862;SDS011;11096;51.338;12.524;2022-08-19T03:23:43;38.65;;;28.15;;
21862;SDS011;11096;51.338;12.524;2022-08-19T03:26:09;42.38;;;30.48;;
21862;SDS011;11096;51.338;12.524;2022-08-19T03:28:34;40.42;;;30.33;;
21862;SDS011;11096;51.338;12.524;2022-08-19T03:31:01;45.05;;;32.55;;
21862;SDS011;11096;51.338;12.524;2022-08-19T03:33:32;39.08;;;28.92;;
21862;SDS011;11096;51.338;12.524;2022-08-19T03:36:05;42.45;;;30.40;;
21862;SDS011;11096;51.338;12.524;2022-08-19T03:38:34;39.00;;;30.48;;
21862;SDS011;11096;51.338;12.524;2022-08-19T03:41:04;38.08;;;29.27;;
21862;SDS011;11096;51.338;12.524;2022-08-19T03:43:32;38.40;;;28.40;;
21862;SDS011;11096;51.338;12.524;2022-08-19T03:46:03;43.25;;;31.02;;
21862;SDS011;11096;51.338;12.524;2022-08-19T03:48:30;48.30;;;32.80;;
21862;SDS011;11096;51.338;12.524;2022-08-19T03:50:56;46.42;;;32.45;;
21862;SDS011;11096;51.338;12.524;2022-08-19T03:53:24;44.08;;;30.98;;
21862;SDS011;11096;51.338;12.524;2022-08-19T03:55:50;47.42;;;31.25;;
21862;SDS011;11096;51.338;12.524;2022-08-19T03:58:16;45.35;;;31.15;;
21862;SDS011;11096;51.338;12.524;2022-08-19T04:00:42;51.45;;;31.85;;
21862;SDS011;11096;51.338;12.524;2022-08-19T04:03:08;47.08;;;31.27;;
21862;SDS011;11096;51.338;12.524;2022-08-19T04:05:33;44.08;;;31.48;;
21862;SDS011;11096;51.338;12.524;2022-08-19T04:07:58;49.35;;;31.55;;
21862;SDS011;11096;51.338;12.524;2022-08-19T04:10:25;41.97;;;30.15;;
21862;SDS011;11096;51.338;12.524;2022-08-19T04:12:52;42.10;;;29.45;;
21862;SDS011;11096;51.338;12.524;2022-08-19T04:15:17;37.92;;;28.25;;
21862;SDS011;11096;51.338;12.524;2022-08-19T04:17:43;38.47;;;29.20;;
21862;SDS011;11096;51.338;12.524;2022-08-19T04:20:09;39.50;;;28.17;;
21862;SDS011;11096;51.338;12.524;2022-08-19T04:22:35;40.40;;;29.17;;
21862;SDS011;11096;51.338;12.524;2022-08-19T04:25:00;39.60;;;28.20;;
21862;SDS011;11096;51.338;12.524;2022-08-19T04:27:25;40.15;;;29.02;;
21862;SDS011;11096;51.338;12.524;2022-08-19T04:29:51;47.50;;;32.03;;
21862;SDS011;11096;51.338;12.524;2022-08-19T04:32:17;39.78;;;30.60;;
21862;SDS011;11096;51.338;12.524;2022-08-19T04:34:42;42.30;;;30.80;;
21862;SDS011;11096;51.338;12.524;2022-08-19T04:37:08;42.10;;;28.85;;
21862;SDS011;11096;51.338;12.524;2022-08-19T04:39:36;38.28;;;28.80;;
21862;SDS011;11096;51.338;12.524;2022-08-19T04:42:21;43.50;;;30.42;;
21862;SDS011;11096;51.338;12.524;2022-08-19T04:45:08;43.80;;;31.55;;
21862;SDS011;11096;51.338;12.524;2022-08-19T04:47:38;43.95;;;31.90;;
21862;SDS011;11096;51.338;12.524;2022-08-19T04:50:06;40.75;;;30.95;;
21862;SDS011;11096;51.338;12.524;2022-08-19T04:52:33;43.80;;;32.47;;
21862;SDS011;11096;51.338;12.524;2022-08-19T04:54:58;46.95;;;33.25;;
21862;SDS011;11096;51.338;12.524;2022-08-19T04:57:24;44.03;;;31.77;;
21862;SDS011;11096;51.338;12.524;2022-08-19T04:59:54;47.97;;;34.78;;
21862;SDS011;11096;51.338;12.524;2022-08-19T05:02:20;51.30;;;36.20;;
21862;SDS011;11096;51.338;12.524;2022-08-19T05:04:50;48.40;;;36.45;;
21862;SDS011;11096;51.338;12.524;2022-08-19T05:07:21;53.72;;;38.67;;
21862;SDS011;11096;51.338;12.524;2022-08-19T05:09:46;55.33;;;38.58;;
21862;SDS011;11096;51.338;12.524;2022-08-19T05:12:11;53.28;;;36.97;;
21862;SDS011;11096;51.338;12.524;2022-08-19T05:14:36;51.30;;;37.05;;
21862;SDS011;11096;51.338;12.524;2022-08-19T05:17:02;53.42;;;37.38;;
21862;SDS011;11096;51.338;12.524;2022-08-19T05:19:27;49.22;;;36.45;;
21862;SDS011;11096;51.338;12.524;2022-08-19T05:22:11;51.15;;;36.53;;
21862;SDS011;11096;51.338;12.524;2022-08-19T05:24:55;51.95;;;38.40;;
21862;SDS011;11096;51.338;12.524;2022-08-19T05:27:20;49.40;;;37.22;;
21862;SDS011;11096;51.338;12.524;2022-08-19T05:29:46;50.75;;;36.67;;
21862;SDS011;11096;51.338;12.524;2022-08-19T05:32:11;49.40;;;35.97;;
21862;SDS011;11096;51.338;12.524;2022-08-19T05:34:37;59.92;;;40.58;;
21862;SDS011;11096;51.338;12.524;2022-08-19T05:37:03;59.65;;;40.03;;
21862;SDS011;11096;51.338;12.524;2022-08-19T05:39:30;56.75;;;41.47;;
21862;SDS011;11096;51.338;12.524;2022-08-19T05:41:58;65.13;;;43.40;;
21862;SDS011;11096;51.338;12.524;2022-08-19T05:44:28;62.05;;;43.22;;
21862;SDS011;11096;51.338;12.524;2022-08-19T05:46:56;63.17;;;42.97;;
21862;SDS011;11096;51.338;12.524;2022-08-19T05:49:22;59.60;;;41.40;;
21862;SDS011;11096;51.338;12.524;2022-08-19T05:51:50;58.28;;;41.30;;
21862;SDS011;11096;51.338;12.524;2022-08-19T05:54:16;62.58;;;41.78;;
21862;SDS011;11096;51.338;12.524;2022-08-19T05:56:43;57.80;;;42.38;;
21862;SDS011;11096;51.338;12.524;2022-08-19T05:59:09;65.80;;;43.15;;
21862;SDS011;11096;51.338;12.524;2022-08-19T06:01:40;63.05;;;41.20;;
21862;SDS011;11096;51.338;12.524;2022-08-19T06:04:07;65.97;;;42.55;;
21862;SDS011;11096;51.338;12.524;2022-08-19T06:06:33;62.17;;;42.20;;
21862;SDS011;11096;51.338;12.524;2022-08-19T06:09:04;61.30;;;41.60;;
21862;SDS011;11096;51.338;12.524;2022-08-19T06:11:35;58.38;;;40.42;;
21862;SDS011;11096;51.338;12.524;2022-08-19T06:14:09;57.47;;;40.33;;
21862;SDS011;11096;51.338;12.524;2022-08-19T06:16:39;58.45;;;41.75;;
21862;SDS011;11096;51.338;12.524;2022-08-19T06:19:07;55.55;;;40.28;;
21862;SDS011;11096;51.338;12.524;2022-08-19T06:21:35;58.60;;;41.92;;
21862;SDS011;11096;51.338;12.524;2022-08-19T06:24:03;60.28;;;41.78;;
21862;SDS011;11096;51.338;12.524;2022-08-19T06:26:33;57.88;;;41.15;;
21862;SDS011;11096;51.338;12.524;2022-08-19T06:28:59;56.90;;;40.13;;
21862;SDS011;11096;51.338;12.524;2022-08-19T06:31:26;56.83;;;40.58;;
21862;SDS011;11096;51.338;12.524;2022-08-19T06:33:52;57.97;;;41.63;;
21862;SDS011;11096;51.338;12.524;2022-08-19T06:36:22;66.78;;;45.33;;
21862;SDS011;11096;51.338;12.524;2022-08-19T06:38:54;60.03;;;43.67;;
21862;SDS011;11096;51.338;12.524;2022-08-19T06:41:22;62.70;;;45.83;;
21862;SDS011;11096;51.338;12.524;2022-08-19T06:43:47;68.68;;;47.67;;
21862;SDS011;11096;51.338;12.524;2022-08-19T06:46:14;66.28;;;46.65;;
21862;SDS011;11096;51.338;12.524;2022-08-19T06:48:41;66.53;;;47.67;;
21862;SDS011;11096;51.338;12.524;2022-08-19T06:51:06;72.93;;;46.08;;
21862;SDS011;11096;51.338;12.524;2022-08-19T06:53:32;67.70;;;46.15;;
21862;SDS011;11096;51.338;12.524;2022-08-19T06:55:58;67.72;;;46.42;;
21862;SDS011;11096;51.338;12.524;2022-08-19T06:58:28;70.40;;;48.47;;
21862;SDS011;11096;51.338;12.524;2022-08-19T07:00:57;73.90;;;50.30;;
21862;SDS011;11096;51.338;12.524;2022-08-19T07:03:26;77.20;;;50.55;;
21862;SDS011;11096;51.338;12.524;2022-08-19T07:05:54;73.63;;;49.28;;
21862;SDS011;11096;51.338;12.524;2022-08-19T07:08:19;78.03;;;51.03;;
21862;SDS011;11096;51.338;12.524;2022-08-19T07:10:45;79.80;;;52.53;;
21862;SDS011;11096;51.338;12.524;2022-08-19T07:13:11;78.25;;;51.72;;
21862;SDS011;11096;51.338;12.524;2022-08-19T07:15:37;81.43;;;53.97;;
21862;SDS011;11096;51.338;12.524;2022-08-19T07:18:02;89.07;;;53.25;;
21862;SDS011;11096;51.338;12.524;2022-08-19T07:20:28;77.85;;;51.78;;
21862;SDS011;11096;51.338;12.524;2022-08-19T07:22:53;87.10;;;52.20;;
21862;SDS011;11096;51.338;12.524;2022-08-19T07:25:18;92.53;;;55.50;;
21862;SDS011;11096;51.338;12.524;2022-08-19T07:27:45;91.28;;;53.78;;
21862;SDS011;11096;51.338;12.524;2022-08-19T07:30:14;98.70;;;58.92;;
21862;SDS011;11096;51.338;12.524;2022-08-19T07:32:39;107.32;;;59.75;;
21862;SDS011;11096;51.338;12.524;2022-08-19T07:35:06;99.93;;;58.70;;
21862;SDS011;11096;51.338;12.524;2022-08-19T07:37:32;104.43;;;59.15;;
21862;SDS011;11096;51.338;12.524;2022-08-19T07:39:59;109.57;;;59.35;;
21862;SDS011;11096;51.338;12.524;2022-08-19T07:42:25;115.18;;;60.85;;
21862;SDS011;11096;51.338;12.524;2022-08-19T07:44:51;116.38;;;61.45;;
21862;SDS011;11096;51.338;12.524;2022-08-19T07:47:17;120.93;;;61.03;;
21862;SDS011;11096;51.338;12.524;2022-08-19T07:49:42;127.32;;;61.28;;
21862;SDS011;11096;51.338;12.524;2022-08-19T07:52:08;126.18;;;60.97;;
21862;SDS011;11096;51.338;12.524;2022-08-19T07:54:35;110.72;;;57.70;;
21862;SDS011;11096;51.338;12.524;2022-08-19T07:57:02;114.03;;;57.13;;
21862;SDS011;11096;51.338;12.524;2022-08-19T07:59:29;113.93;;;57.22;;
21862;SDS011;11096;51.338;12.524;2022-08-19T08:01:55;106.57;;;55.72;;
21862;SDS011;11096;51.338;12.524;2022-08-19T08:04:21;103.57;;;56.33;;
21862;SDS011;11096;51.338;12.524;2022-08-19T08:07:06;92.50;;;52.85;;
21862;SDS011;11096;51.338;12.524;2022-08-19T08:09:51;100.75;;;54.83;;
21862;SDS011;11096;51.338;12.524;2022-08-19T08:12:21;104.97;;;54.28;;
21862;SDS011;11096;51.338;12.524;2022-08-19T08:14:54;97.28;;;52.47;;
21862;SDS011;11096;51.338;12.524;2022-08-19T08:17:22;90.10;;;53.35;;
21862;SDS011;11096;51.338;12.524;2022-08-19T08:19:49;97.40;;;53.05;;
21862;SDS011;11096;51.338;12.524;2022-08-19T08:22:16;94.97;;;53.28;;
21862;SDS011;11096;51.338;12.524;2022-08-19T08:25:04;111.28;;;55.35;;
21862;SDS011;11096;51.338;12.524;2022-08-19T08:27:31;95.05;;;53.28;;
21862;SDS011;11096;51.338;12.524;2022-08-19T08:29:57;87.75;;;53.28;;
21862;SDS011;11096;51.338;12.524;2022-08-19T08:32:22;93.03;;;52.05;;
21862;SDS011;11096;51.338;12.524;2022-08-19T08:34:48;99.82;;;54.95;;
21862;SDS011;11096;51.338;12.524;2022-08-19T08:37:13;108.20;;;55.97;;
21862;SDS011;11096;51.338;12.524;2022-08-19T08:39:39;107.95;;;55.10;;
21862;SDS011;11096;51.338;12.524;2022-08-19T08:42:19;115.38;;;57.28;;
21862;SDS011;11096;51.338;12.524;2022-08-19T08:47:50;103.70;;;54.97;;
21862;SDS011;11096;51.338;12.524;2022-08-19T08:50:20;101.57;;;53.75;;
21862;SDS011;11096;51.338;12.524;2022-08-19T08:52:50;93.90;;;53.50;;
21862;SDS011;11096;51.338;12.524;2022-08-19T08:55:22;87.97;;;52.95;;
21862;SDS011;11096;51.338;12.524;2022-08-19T08:57:55;94.88;;;55.45;;
21862;SDS011;11096;51.338;12.524;2022-08-19T09:00:28;100.95;;;55.47;;
21862;SDS011;11096;51.338;12.524;2022-08-19T09:02:57;90.03;;;53.08;;
21862;SDS011;11096;51.338;12.524;2022-08-19T09:05:23;99.78;;;56.80;;
21862;SDS011;11096;51.338;12.524;2022-08-19T09:08:00;101.53;;;58.78;;
21862;SDS011;11096;51.338;12.524;2022-08-19T09:10:33;103.72;;;58.60;;
21862;SDS011;11096;51.338;12.524;2022-08-19T09:13:11;103.57;;;59.30;;
21862;SDS011;11096;51.338;12.524;2022-08-19T09:15:42;108.78;;;61.15;;
21862;SDS011;11096;51.338;12.524;2022-08-19T09:18:12;100.28;;;57.75;;
21862;SDS011;11096;51.338;12.524;2022-08-19T09:20:38;118.55;;;62.80;;
21862;SDS011;11096;51.338;12.524;2022-08-19T09:23:04;108.18;;;60.28;;
21862;SDS011;11096;51.338;12.524;2022-08-19T09:25:29;95.68;;;57.13;;
21862;SDS011;11096;51.338;12.524;2022-08-19T09:27:57;91.60;;;55.70;;
21862;SDS011;11096;51.338;12.524;2022-08-19T09:30:28;98.43;;;57.03;;
21862;SDS011;11096;51.338;12.524;2022-08-19T09:32:55;91.03;;;56.47;;
21862;SDS011;11096;51.338;12.524;2022-08-19T09:35:22;90.97;;;54.92;;
21862;SDS011;11096;51.338;12.524;2022-08-19T09:37:52;78.22;;;48.45;;
21862;SDS011;11096;51.338;12.524;2022-08-19T09:40:18;80.38;;;49.33;;
21862;SDS011;11096;51.338;12.524;2022-08-19T09:42:45;87.55;;;51.88;;
21862;SDS011;11096;51.338;12.524;2022-08-19T09:45:14;90.88;;;51.40;;
21862;SDS011;11096;51.338;12.524;2022-08-19T09:47:41;80.93;;;50.03;;
21862;SDS011;11096;51.338;12.524;2022-08-19T09:50:08;73.55;;;48.90;;
21862;SDS011;11096;51.338;12.524;2022-08-19T09:52:36;89.07;;;52.67;;
21862;SDS011;11096;51.338;12.524;2022-08-19T09:55:06;79.75;;;50.13;;
21862;SDS011;11096;51.338;12.524;2022-08-19T09:57:34;84.35;;;50.75;;
21862;SDS011;11096;51.338;12.524;2022-08-19T10:00:00;77.63;;;50.28;;
21862;SDS011;11096;51.338;12.524;2022-08-19T10:02:26;83.00;;;49.25;;
21862;SDS011;11096;51.338;12.524;2022-08-19T10:04:51;85.13;;;50.22;;
21862;SDS011;11096;51.338;12.524;2022-08-19T10:07:36;76.70;;;48.45;;
21862;SDS011;11096;51.338;12.524;2022-08-19T10:10:03;69.90;;;45.78;;
21862;SDS011;11096;51.338;12.524;2022-08-19T10:12:31;67.60;;;44.38;;
21862;SDS011;11096;51.338;12.524;2022-08-19T10:14:57;59.00;;;40.80;;
21862;SDS011;11096;51.338;12.524;2022-08-19T10:17:23;60.22;;;42.63;;
21862;SDS011;11096;51.338;12.524;2022-08-19T10:19:50;60.10;;;40.85;;
21862;SDS011;11096;51.338;12.524;2022-08-19T10:22:16;48.95;;;38.55;;
21862;SDS011;11096;51.338;12.524;2022-08-19T10:24:43;50.10;;;37.53;;
21862;SDS011;11096;51.338;12.524;2022-08-19T10:27:08;49.55;;;36.25;;
21862;SDS011;11096;51.338;12.524;2022-08-19T10:29:34;53.15;;;38.03;;
21862;SDS011;11096;51.338;12.524;2022-08-19T10:32:00;50.03;;;35.15;;
21862;SDS011;11096;51.338;12.524;2022-08-19T10:34:27;46.72;;;33.03;;
21862;SDS011;11096;51.338;12.524;2022-08-19T10:36:53;44.17;;;31.98;;
21862;SDS011;11096;51.338;12.524;2022-08-19T10:39:18;44.35;;;34.03;;
21862;SDS011;11096;51.338;12.524;2022-08-19T10:41:44;45.45;;;32.25;;
21862;SDS011;11096;51.338;12.524;2022-08-19T10:44:10;41.80;;;31.80;;
21862;SDS011;11096;51.338;12.524;2022-08-19T10:46:39;46.10;;;32.80;;
21862;SDS011;11096;51.338;12.524;2022-08-19T10:49:06;42.10;;;31.80;;
21862;SDS011;11096;51.338;12.524;2022-08-19T10:51:33;41.42;;;30.25;;
21862;SDS011;11096;51.338;12.524;2022-08-19T10:54:17;40.10;;;31.48;;
21862;SDS011;11096;51.338;12.524;2022-08-19T10:56:42;37.65;;;29.60;;
21862;SDS011;11096;51.338;12.524;2022-08-19T11:01:52;33.80;;;27.88;;
21862;SDS011;11096;51.338;12.524;2022-08-19T11:04:19;34.58;;;27.75;;
21862;SDS011;11096;51.338;12.524;2022-08-19T11:06:46;38.13;;;27.02;;
21862;SDS011;11096;51.338;12.524;2022-08-19T11:09:22;35.88;;;26.52;;
21862;SDS011;11096;51.338;12.524;2022-08-19T11:11:49;34.42;;;26.90;;
21862;SDS011;11096;51.338;12.524;2022-08-19T11:14:16;38.25;;;26.60;;
21862;SDS011;11096;51.338;12.524;2022-08-19T11:16:45;27.05;;;23.70;;
21862;SDS011;11096;51.338;12.524;2022-08-19T11:19:12;27.23;;;24.08;;
21862;SDS011;11096;51.338;12.524;2022-08-19T11:21:40;33.70;;;24.95;;
21862;SDS011;11096;51.338;12.524;2022-08-19T11:24:08;30.77;;;23.65;;
21862;SDS011;11096;51.338;12.524;2022-08-19T11:26:36;32.30;;;24.25;;
21862;SDS011;11096;51.338;12.524;2022-08-19T11:29:03;29.67;;;22.88;;
21862;SDS011;11096;51.338;12.524;2022-08-19T11:31:32;33.88;;;23.55;;
21862;SDS011;11096;51.338;12.524;2022-08-19T11:33:59;30.13;;;22.13;;
21862;SDS011;11096;51.338;12.524;2022-08-19T11:36:26;28.88;;;21.83;;
21862;SDS011;11096;51.338;12.524;2022-08-19T11:38:53;30.83;;;22.23;;
21862;SDS011;11096;51.338;12.524;2022-08-19T11:41:20;28.77;;;21.45;;
21862;SDS011;11096;51.338;12.524;2022-08-19T11:43:47;24.73;;;20.20;;
21862;SDS011;11096;51.338;12.524;2022-08-19T11:46:14;34.72;;;21.25;;
21862;SDS011;11096;51.338;12.524;2022-08-19T11:48:41;27.65;;;21.10;;
21862;SDS011;11096;51.338;12.524;2022-08-19T11:51:09;27.60;;;20.20;;
21862;SDS011;11096;51.338;12.524;2022-08-19T11:53:41;26.60;;;19.55;;
21862;SDS011;11096;51.338;12.524;2022-08-19T11:56:07;25.40;;;19.13;;
21862;SDS011;11096;51.338;12.524;2022-08-19T11:58:34;24.70;;;18.67;;
21862;SDS011;11096;51.338;12.524;2022-08-19T12:01:00;24.75;;;18.55;;
21862;SDS011;11096;51.338;12.524;2022-08-19T12:03:26;23.00;;;18.10;;
21862;SDS011;11096;51.338;12.524;2022-08-19T12:05:52;20.20;;;17.30;;
21862;SDS011;11096;51.338;12.524;2022-08-19T12:08:18;23.65;;;17.60;;
21862;SDS011;11096;51.338;12.524;2022-08-19T12:10:43;18.35;;;16.33;;
21862;SDS011;11096;51.338;12.524;2022-08-19T12:13:10;19.25;;;15.73;;
21862;SDS011;11096;51.338;12.524;2022-08-19T12:15:39;19.58;;;15.48;;
21862;SDS011;11096;51.338;12.524;2022-08-19T12:18:08;18.20;;;14.80;;
21862;SDS011;11096;51.338;12.524;2022-08-19T12:20:35;16.10;;;13.13;;
21862;SDS011;11096;51.338;12.524;2022-08-19T12:23:02;17.25;;;14.02;;
21862;SDS011;11096;51.338;12.524;2022-08-19T12:25:28;17.00;;;13.70;;
21862;SDS011;11096;51.338;12.524;2022-08-19T12:27:53;15.43;;;11.93;;
21862;SDS011;11096;51.338;12.524;2022-08-19T12:30:19;17.98;;;13.48;;
21862;SDS011;11096;51.338;12.524;2022-08-19T12:32:45;17.20;;;12.75;;
21862;SDS011;11096;51.338;12.524;2022-08-19T12:35:10;18.95;;;14.80;;
21862;SDS011;11096;51.338;12.524;2022-08-19T12:37:36;17.85;;;13.90;;
21862;SDS011;11096;51.338;12.524;2022-08-19T12:40:02;17.25;;;14.30;;
21862;SDS011;11096;51.338;12.524;2022-08-19T12:42:28;18.92;;;14.25;;
21862;SDS011;11096;51.338;12.524;2022-08-19T12:44:55;17.90;;;13.98;;
21862;SDS011;11096;51.338;12.524;2022-08-19T12:47:21;19.50;;;14.02;;
21862;SDS011;11096;51.338;12.524;2022-08-19T12:49:46;15.50;;;12.30;;
21862;SDS011;11096;51.338;12.524;2022-08-19T12:52:13;17.77;;;14.60;;
21862;SDS011;11096;51.338;12.524;2022-08-19T12:54:41;16.05;;;12.80;;
21862;SDS011;11096;51.338;12.524;2022-08-19T12:57:08;16.90;;;14.73;;
21862;SDS011;11096;51.338;12.524;2022-08-19T12:59:35;20.35;;;13.82;;
21862;SDS011;11096;51.338;12.524;2022-08-19T13:02:05;18.95;;;14.10;;
21862;SDS011;11096;51.338;12.524;2022-08-19T13:04:32;15.88;;;13.52;;
21862;SDS011;11096;51.338;12.524;2022-08-19T13:07:01;15.50;;;13.68;;
21862;SDS011;11096;51.338;12.524;2022-08-19T13:09:27;15.15;;;13.50;;
21862;SDS011;11096;51.338;12.524;2022-08-19T13:11:53;18.13;;;14.63;;
21862;SDS011;11096;51.338;12.524;2022-08-19T13:14:18;16.27;;;14.18;;
21862;SDS011;11096;51.338;12.524;2022-08-19T13:16:43;21.52;;;14.70;;
21862;SDS011;11096;51.338;12.524;2022-08-19T13:19:09;21.20;;;15.63;;
21862;SDS011;11096;51.338;12.524;2022-08-19T13:21:35;17.48;;;15.15;;
21862;SDS011;11096;51.338;12.524;2022-08-19T13:24:01;19.92;;;15.30;;
21862;SDS011;11096;51.338;12.524;2022-08-19T13:26:26;22.13;;;15.70;;
21862;SDS011;11096;51.338;12.524;2022-08-19T13:28:52;19.75;;;15.35;;
21862;SDS011;11096;51.338;12.524;2022-08-19T13:31:36;19.35;;;15.30;;
21862;SDS011;11096;51.338;12.524;2022-08-19T13:34:26;22.38;;;15.50;;
21862;SDS011;11096;51.338;12.524;2022-08-19T13:36:54;19.45;;;15.98;;
21862;SDS011;11096;51.338;12.524;2022-08-19T13:39:19;19.63;;;15.60;;
21862;SDS011;11096;51.338;12.524;2022-08-19T13:41:46;20.45;;;16.25;;
21862;SDS011;11096;51.338;12.524;2022-08-19T13:44:18;20.70;;;16.75;;
21862;SDS011;11096;51.338;12.524;2022-08-19T13:46:45;21.98;;;16.58;;
21862;SDS011;11096;51.338;12.524;2022-08-19T13:49:12;20.92;;;15.23;;
21862;SDS011;11096;51.338;12.524;2022-08-19T13:51:39;22.58;;;16.25;;
21862;SDS011;11096;51.338;12.524;2022-08-19T13:54:06;25.60;;;17.13;;
21862;SDS011;11096;51.338;12.524;2022-08-19T13:56:32;21.83;;;16.75;;
21862;SDS011;11096;51.338;12.524;2022-08-19T13:58:57;22.38;;;16.85;;
21862;SDS011;11096;51.338;12.524;2022-08-19T14:01:23;24.83;;;16.95;;
21862;SDS011;11096;51.338;12.524;2022-08-19T14:03:49;21.98;;;17.80;;
21862;SDS011;11096;51.338;12.524;2022-08-19T14:06:14;21.67;;;17.20;;
21862;SDS011;11096;51.338;12.524;2022-08-19T14:08:41;23.42;;;17.58;;
21862;SDS011;11096;51.338;12.524;2022-08-19T14:11:07;23.20;;;18.80;;
21862;SDS011;11096;51.338;12.524;2022-08-19T14:13:33;24.85;;;18.60;;
21862;SDS011;11096;51.338;12.524;2022-08-19T14:15:59;24.95;;;19.23;;
21862;SDS011;11096;51.338;12.524;2022-08-19T14:18:24;23.90;;;18.13;;
21862;SDS011;11096;51.338;12.524;2022-08-19T14:20:50;21.98;;;18.33;;